sensor_id;sensor_type;location;lat;lon;timestamp;pressure;altitude;pressure_sealevel;temperature;humidity
31717;BME280;18301;51.076;17.046;2022-12-26T00:02:22;100036.25;;;7.89;93.18
31717;BME280;18301;51.076;17.046;2022-12-26T00:07:23;100027.75;;;7.95;93.47
31717;BME280;18301;51.076;17.046;2022-12-26T00:12:25;100008.41;;;8.03;92.92
31717;BME280;18301;51.076;17.046;2022-12-26T00:17:26;99998.72;;;8.00;92.89
31717;BME280;18301;51.076;17.046;2022-12-26T00:22:28;100006.25;;;7.95;93.37
31717;BME280;18301;51.076;17.046;2022-12-26T00:27:29;100004.31;;;7.97;93.79
31717;BME280;18301;51.076;17.046;2022-12-26T00:32:30;100011.00;;;7.92;94.00
31717;BME280;18301;51.076;17.046;2022-12-26T00:37:32;99998.63;;;8.02;94.20
31717;BME280;18301;51.076;17.046;2022-12-26T00:42:33;99968.84;;;8.05;93.95
31717;BME280;18301;51.076;17.046;2022-12-26T00:47:35;99967.88;;;7.93;93.62
31717;BME280;18301;51.076;17.046;2022-12-26T00:52:36;99974.75;;;7.84;94.32
31717;BME280;18301;51.076;17.046;2022-12-26T00:57:38;99963.56;;;7.78;94.21
31717;BME280;18301;51.076;17.046;2022-12-26T01:02:39;99984.44;;;7.74;94.21
31717;BME280;18301;51.076;17.046;2022-12-26T01:07:41;99981.31;;;7.68;95.01
31717;BME280;18301;51.076;17.046;2022-12-26T01:13:03;100007.09;;;7.83;94.48
31717;BME280;18301;51.076;17.046;2022-12-26T01:18:04;100005.41;;;7.95;94.09
31717;BME280;18301;51.076;17.046;2022-12-26T01:23:06;99984.13;;;8.04;93.88
31717;BME280;18301;51.076;17.046;2022-12-26T01:28:08;99970.78;;;7.90;94.01
31717;BME280;18301;51.076;17.046;2022-12-26T01:33:09;99958.00;;;7.81;93.84
31717;BME280;18301;51.076;17.046;2022-12-26T01:38:11;99948.66;;;7.74;93.95
31717;BME280;18301;51.076;17.046;2022-12-26T01:43:14;99952.84;;;7.78;93.46
31717;BME280;18301;51.076;17.046;2022-12-26T01:48:20;99967.75;;;7.56;94.64
31717;BME280;18301;51.076;17.046;2022-12-26T01:53:36;99950.06;;;7.79;93.85
31717;BME280;18301;51.076;17.046;2022-12-26T01:58:46;99949.09;;;7.80;93.81
31717;BME280;18301;51.076;17.046;2022-12-26T02:03:49;99960.47;;;7.84;93.52
31717;BME280;18301;51.076;17.046;2022-12-26T02:09:10;99971.22;;;7.84;93.86
31717;BME280;18301;51.076;17.046;2022-12-26T02:14:12;99940.03;;;7.94;94.41
31717;BME280;18301;51.076;17.046;2022-12-26T02:30:38;99932.09;;;8.05;93.50
31717;BME280;18301;51.076;17.046;2022-12-26T02:46:25;99902.00;;;8.00;92.63
31717;BME280;18301;51.076;17.046;2022-12-26T02:57:20;99882.03;;;7.92;92.61
31717;BME280;18301;51.076;17.046;2022-12-26T03:08:10;99907.38;;;7.75;93.54
31717;BME280;18301;51.076;17.046;2022-12-26T03:13:32;99900.50;;;7.96;93.85
31717;BME280;18301;51.076;17.046;2022-12-26T03:18:40;99894.25;;;8.08;93.11
31717;BME280;18301;51.076;17.046;2022-12-26T03:23:59;99866.31;;;8.11;93.09
31717;BME280;18301;51.076;17.046;2022-12-26T03:29:01;99881.56;;;8.11;93.09
31717;BME280;18301;51.076;17.046;2022-12-26T03:34:22;99872.75;;;8.08;93.04
31717;BME280;18301;51.076;17.046;2022-12-26T03:44:54;99863.63;;;8.11;93.14
31717;BME280;18301;51.076;17.046;2022-12-26T03:50:49;99865.75;;;8.19;93.00
31717;BME280;18301;51.076;17.046;2022-12-26T03:56:25;99863.06;;;8.19;92.72
31717;BME280;18301;51.076;17.046;2022-12-26T04:01:49;99857.44;;;8.22;92.97
31717;BME280;18301;51.076;17.046;2022-12-26T04:07:27;99851.75;;;8.39;92.27
31717;BME280;18301;51.076;17.046;2022-12-26T04:13:00;99865.38;;;8.36;92.50
31717;BME280;18301;51.076;17.046;2022-12-26T04:18:28;99870.97;;;8.33;93.09
31717;BME280;18301;51.076;17.046;2022-12-26T04:23:50;99867.56;;;8.44;92.75
31717;BME280;18301;51.076;17.046;2022-12-26T04:29:11;99844.44;;;8.65;91.93
31717;BME280;18301;51.076;17.046;2022-12-26T04:34:40;99848.94;;;8.65;92.19
31717;BME280;18301;51.076;17.046;2022-12-26T04:40:06;99853.41;;;8.77;92.20
31717;BME280;18301;51.076;17.046;2022-12-26T04:45:29;99850.72;;;8.77;91.84
31717;BME280;18301;51.076;17.046;2022-12-26T04:50:30;99858.78;;;8.77;92.02
31717;BME280;18301;51.076;17.046;2022-12-26T04:55:32;99857.88;;;8.89;91.74
31717;BME280;18301;51.076;17.046;2022-12-26T05:00:36;99852.06;;;9.07;91.65
31717;BME280;18301;51.076;17.046;2022-12-26T05:05:43;99853.78;;;9.08;91.35
31717;BME280;18301;51.076;17.046;2022-12-26T05:11:04;99847.22;;;9.12;91.35
31717;BME280;18301;51.076;17.046;2022-12-26T05:16:06;99837.44;;;9.22;91.14
31717;BME280;18301;51.076;17.046;2022-12-26T05:21:26;99840.63;;;9.27;90.89
31717;BME280;18301;51.076;17.046;2022-12-26T05:26:46;99829.63;;;9.30;90.67
31717;BME280;18301;51.076;17.046;2022-12-26T05:32:06;99839.28;;;9.33;90.67
31717;BME280;18301;51.076;17.046;2022-12-26T05:37:08;99832.44;;;9.29;90.79
31717;BME280;18301;51.076;17.046;2022-12-26T05:42:09;99824.25;;;9.30;90.65
31717;BME280;18301;51.076;17.046;2022-12-26T05:47:10;99837.81;;;9.29;90.78
31717;BME280;18301;51.076;17.046;2022-12-26T05:52:12;99839.28;;;9.33;90.34
31717;BME280;18301;51.076;17.046;2022-12-26T05:57:13;99841.63;;;9.37;90.24
31717;BME280;18301;51.076;17.046;2022-12-26T06:02:15;99842.63;;;9.48;90.02
31717;BME280;18301;51.076;17.046;2022-12-26T06:07:16;99848.75;;;9.50;89.92
31717;BME280;18301;51.076;17.046;2022-12-26T06:12:18;99835.53;;;9.47;90.08
31717;BME280;18301;51.076;17.046;2022-12-26T06:17:19;99861.13;;;9.63;89.21
31717;BME280;18301;51.076;17.046;2022-12-26T06:22:21;99861.28;;;9.73;89.18
31717;BME280;18301;51.076;17.046;2022-12-26T06:27:22;99844.38;;;9.94;88.32
31717;BME280;18301;51.076;17.046;2022-12-26T06:32:24;99858.72;;;10.05;87.86
31717;BME280;18301;51.076;17.046;2022-12-26T06:37:25;99863.00;;;10.08;87.72
31717;BME280;18301;51.076;17.046;2022-12-26T06:42:27;99877.44;;;10.18;86.75
31717;BME280;18301;51.076;17.046;2022-12-26T06:47:28;99882.25;;;10.26;86.32
31717;BME280;18301;51.076;17.046;2022-12-26T06:52:30;99861.56;;;10.26;86.32
31717;BME280;18301;51.076;17.046;2022-12-26T06:57:31;99876.72;;;10.16;86.43
31717;BME280;18301;51.076;17.046;2022-12-26T07:02:33;99886.28;;;10.20;86.13
31717;BME280;18301;51.076;17.046;2022-12-26T07:07:34;99882.72;;;10.20;86.28
31717;BME280;18301;51.076;17.046;2022-12-26T07:12:36;99909.59;;;10.10;85.94
31717;BME280;18301;51.076;17.046;2022-12-26T07:17:37;99889.22;;;10.06;86.24
31717;BME280;18301;51.076;17.046;2022-12-26T07:22:39;99879.19;;;9.85;86.41
31717;BME280;18301;51.076;17.046;2022-12-26T07:27:40;99899.38;;;10.02;86.35
31717;BME280;18301;51.076;17.046;2022-12-26T07:32:42;99879.91;;;9.99;85.66
31717;BME280;18301;51.076;17.046;2022-12-26T07:37:43;99906.13;;;10.08;85.97
31717;BME280;18301;51.076;17.046;2022-12-26T07:42:45;99884.81;;;10.05;85.67
31717;BME280;18301;51.076;17.046;2022-12-26T07:47:46;99882.88;;;10.07;86.07
31717;BME280;18301;51.076;17.046;2022-12-26T07:52:48;99893.13;;;9.90;86.78
31717;BME280;18301;51.076;17.046;2022-12-26T07:57:50;99893.97;;;9.91;86.82
31717;BME280;18301;51.076;17.046;2022-12-26T08:02:52;99896.09;;;9.99;86.33
31717;BME280;18301;51.076;17.046;2022-12-26T08:07:54;99890.69;;;9.99;86.67
31717;BME280;18301;51.076;17.046;2022-12-26T08:12:56;99897.06;;;10.09;86.66
31717;BME280;18301;51.076;17.046;2022-12-26T08:17:57;99901.00;;;10.05;86.62
31717;BME280;18301;51.076;17.046;2022-12-26T08:22:59;99901.22;;;10.02;86.98
31717;BME280;18301;51.076;17.046;2022-12-26T08:28:01;99899.78;;;9.98;86.88
31717;BME280;18301;51.076;17.046;2022-12-26T08:33:02;99899.28;;;10.04;86.56
31717;BME280;18301;51.076;17.046;2022-12-26T08:38:04;99901.09;;;9.92;86.93
31717;BME280;18301;51.076;17.046;2022-12-26T08:43:06;99896.56;;;9.93;86.80
31717;BME280;18301;51.076;17.046;2022-12-26T08:48:28;99911.50;;;9.97;86.67
31717;BME280;18301;51.076;17.046;2022-12-26T08:53:30;99913.00;;;9.89;86.71
31717;BME280;18301;51.076;17.046;2022-12-26T08:58:33;99911.00;;;9.80;87.52
31717;BME280;18301;51.076;17.046;2022-12-26T09:03:35;99915.47;;;10.04;86.56
31717;BME280;18301;51.076;17.046;2022-12-26T09:08:38;99915.47;;;10.04;86.60
31717;BME280;18301;51.076;17.046;2022-12-26T09:13:40;99922.44;;;10.18;86.74
31717;BME280;18301;51.076;17.046;2022-12-26T09:18:43;99923.31;;;10.52;87.00
31717;BME280;18301;51.076;17.046;2022-12-26T09:23:45;99924.91;;;10.98;86.25
31717;BME280;18301;51.076;17.046;2022-12-26T09:28:46;99918.91;;;11.26;84.62
31717;BME280;18301;51.076;17.046;2022-12-26T09:33:49;99919.41;;;11.32;83.03
31717;BME280;18301;51.076;17.046;2022-12-26T09:38:51;99929.81;;;11.36;83.65
31717;BME280;18301;51.076;17.046;2022-12-26T10:00:22;99924.69;;;11.96;81.04
31717;BME280;18301;51.076;17.046;2022-12-26T10:05:32;99916.84;;;12.14;78.94
31717;BME280;18301;51.076;17.046;2022-12-26T10:10:47;99888.03;;;12.13;78.81
31717;BME280;18301;51.076;17.046;2022-12-26T10:15:57;99906.78;;;11.95;79.41
31717;BME280;18301;51.076;17.046;2022-12-26T10:21:39;99900.94;;;12.00;79.56
31717;BME280;18301;51.076;17.046;2022-12-26T10:26:47;99900.09;;;11.99;78.69
31717;BME280;18301;51.076;17.046;2022-12-26T10:31:55;99890.81;;;11.92;79.18
31717;BME280;18301;51.076;17.046;2022-12-26T10:37:13;99888.59;;;12.07;79.80
31717;BME280;18301;51.076;17.046;2022-12-26T10:42:28;99897.09;;;11.92;80.34
31717;BME280;18301;51.076;17.046;2022-12-26T10:47:39;99887.13;;;11.93;80.63
31717;BME280;18301;51.076;17.046;2022-12-26T10:52:42;99881.84;;;11.70;80.68
31717;BME280;18301;51.076;17.046;2022-12-26T10:57:46;99877.59;;;11.78;80.56
31717;BME280;18301;51.076;17.046;2022-12-26T11:03:02;99878.16;;;11.71;80.96
31717;BME280;18301;51.076;17.046;2022-12-26T11:08:32;99881.00;;;11.70;81.04
31717;BME280;18301;51.076;17.046;2022-12-26T11:13:53;99886.19;;;11.83;81.31
31717;BME280;18301;51.076;17.046;2022-12-26T11:19:02;99881.88;;;12.32;80.56
31717;BME280;18301;51.076;17.046;2022-12-26T11:29:16;99875.44;;;12.83;77.05
31717;BME280;18301;51.076;17.046;2022-12-26T11:34:37;99883.34;;;13.25;76.16
31717;BME280;18301;51.076;17.046;2022-12-26T11:39:49;99871.19;;;13.09;75.20
31717;BME280;18301;51.076;17.046;2022-12-26T11:44:53;99864.03;;;12.89;75.55
31717;BME280;18301;51.076;17.046;2022-12-26T11:50:00;99840.69;;;12.78;76.01
31717;BME280;18301;51.076;17.046;2022-12-26T12:00:23;99830.13;;;12.65;76.22
31717;BME280;18301;51.076;17.046;2022-12-26T12:05:31;99838.31;;;12.35;77.23
31717;BME280;18301;51.076;17.046;2022-12-26T12:16:48;99839.84;;;12.28;78.26
31717;BME280;18301;51.076;17.046;2022-12-26T12:21:37;99842.56;;;12.28;77.21
31717;BME280;18301;51.076;17.046;2022-12-26T12:27:04;99839.28;;;12.24;77.94
31717;BME280;18301;51.076;17.046;2022-12-26T12:32:21;99838.25;;;12.15;77.68
31717;BME280;18301;51.076;17.046;2022-12-26T12:37:42;99830.13;;;12.15;78.23
31717;BME280;18301;51.076;17.046;2022-12-26T12:54:01;99839.97;;;12.16;79.10
31717;BME280;18301;51.076;17.046;2022-12-26T13:04:48;99846.91;;;12.09;79.06
31717;BME280;18301;51.076;17.046;2022-12-26T13:10:01;99838.25;;;12.15;78.89
31717;BME280;18301;51.076;17.046;2022-12-26T13:15:08;99837.53;;;12.13;78.89
31717;BME280;18301;51.076;17.046;2022-12-26T13:20:27;99841.78;;;12.16;78.78
31717;BME280;18301;51.076;17.046;2022-12-26T13:25:34;99847.09;;;12.17;79.41
31717;BME280;18301;51.076;17.046;2022-12-26T13:30:37;99845.41;;;12.26;79.00
31717;BME280;18301;51.076;17.046;2022-12-26T13:35:59;99850.56;;;12.39;78.50
31717;BME280;18301;51.076;17.046;2022-12-26T13:41:02;99854.88;;;12.51;76.92
31717;BME280;18301;51.076;17.046;2022-12-26T13:51:49;99848.59;;;12.41;76.70
31717;BME280;18301;51.076;17.046;2022-12-26T14:13:55;99847.09;;;12.17;76.72
31717;BME280;18301;51.076;17.046;2022-12-26T14:29:55;99832.84;;;12.15;77.59
31717;BME280;18301;51.076;17.046;2022-12-26T14:35:30;99830.78;;;11.98;77.87
31717;BME280;18301;51.076;17.046;2022-12-26T14:40:35;99831.06;;;11.95;78.21
31717;BME280;18301;51.076;17.046;2022-12-26T14:45:41;99838.00;;;11.88;78.54
31717;BME280;18301;51.076;17.046;2022-12-26T14:55:58;99866.41;;;12.13;77.87
31717;BME280;18301;51.076;17.046;2022-12-26T15:12:17;99855.28;;;12.06;78.16
31717;BME280;18301;51.076;17.046;2022-12-26T15:23:28;99855.28;;;12.06;78.09
31717;BME280;18301;51.076;17.046;2022-12-26T15:28:48;99848.13;;;11.95;78.66
31717;BME280;18301;51.076;17.046;2022-12-26T15:44:27;99865.41;;;11.83;79.44
31717;BME280;18301;51.076;17.046;2022-12-26T15:49:52;99862.72;;;11.83;79.55
31717;BME280;18301;51.076;17.046;2022-12-26T16:00:29;99863.91;;;11.69;80.47
31717;BME280;18301;51.076;17.046;2022-12-26T16:11:14;99855.13;;;11.77;79.99
31717;BME280;18301;51.076;17.046;2022-12-26T16:16:27;99874.13;;;11.66;81.30
31717;BME280;18301;51.076;17.046;2022-12-26T16:21:29;99890.59;;;11.63;81.72
31717;BME280;18301;51.076;17.046;2022-12-26T16:26:49;99905.50;;;11.57;82.67
31717;BME280;18301;51.076;17.046;2022-12-26T16:31:50;99920.22;;;11.64;82.72
31717;BME280;18301;51.076;17.046;2022-12-26T16:36:52;99936.63;;;11.93;82.78
31717;BME280;18301;51.076;17.046;2022-12-26T16:42:05;99936.81;;;11.81;83.44
31717;BME280;18301;51.076;17.046;2022-12-26T16:47:10;99931.03;;;11.32;85.38
31717;BME280;18301;51.076;17.046;2022-12-26T16:52:30;99931.63;;;11.36;85.13
31717;BME280;18301;51.076;17.046;2022-12-26T16:57:33;99931.19;;;11.31;86.14
31717;BME280;18301;51.076;17.046;2022-12-26T17:02:36;99941.91;;;11.21;85.70
31717;BME280;18301;51.076;17.046;2022-12-26T17:07:43;99930.56;;;11.06;86.24
31717;BME280;18301;51.076;17.046;2022-12-26T17:12:46;99951.63;;;11.12;85.19
31717;BME280;18301;51.076;17.046;2022-12-26T17:17:48;99955.75;;;11.27;84.06
31717;BME280;18301;51.076;17.046;2022-12-26T17:22:54;99945.72;;;11.18;84.17
31717;BME280;18301;51.076;17.046;2022-12-26T17:33:19;99943.34;;;10.93;84.28
31717;BME280;18301;51.076;17.046;2022-12-26T17:38:25;99942.72;;;10.89;83.81
31717;BME280;18301;51.076;17.046;2022-12-26T17:43:37;99945.06;;;10.94;84.49
31717;BME280;18301;51.076;17.046;2022-12-26T17:48:40;99946.50;;;10.98;84.14
31717;BME280;18301;51.076;17.046;2022-12-26T17:53:46;99941.97;;;10.98;84.17
31717;BME280;18301;51.076;17.046;2022-12-26T17:58:49;99954.38;;;11.01;84.03
31717;BME280;18301;51.076;17.046;2022-12-26T18:03:50;99957.81;;;11.03;83.95
31717;BME280;18301;51.076;17.046;2022-12-26T18:08:53;99958.16;;;10.98;83.82
31717;BME280;18301;51.076;17.046;2022-12-26T18:13:54;99967.59;;;11.04;83.82
31717;BME280;18301;51.076;17.046;2022-12-26T18:18:56;99971.31;;;11.03;83.75
31717;BME280;18301;51.076;17.046;2022-12-26T18:23:57;99968.59;;;11.03;83.53
31717;BME280;18301;51.076;17.046;2022-12-26T18:28:59;99973.78;;;10.95;83.56
31717;BME280;18301;51.076;17.046;2022-12-26T18:34:00;99974.41;;;10.87;83.73
31717;BME280;18301;51.076;17.046;2022-12-26T18:39:03;99979.91;;;10.86;83.51
31717;BME280;18301;51.076;17.046;2022-12-26T18:44:05;99988.03;;;10.86;83.25
31717;BME280;18301;51.076;17.046;2022-12-26T18:49:07;99987.16;;;10.85;83.45
31717;BME280;18301;51.076;17.046;2022-12-26T18:54:09;99981.28;;;10.80;83.45
31717;BME280;18301;51.076;17.046;2022-12-26T18:59:11;99962.88;;;10.74;83.04
31717;BME280;18301;51.076;17.046;2022-12-26T19:04:14;99965.13;;;10.69;83.26
31717;BME280;18301;51.076;17.046;2022-12-26T19:09:16;99971.13;;;10.72;83.16
31717;BME280;18301;51.076;17.046;2022-12-26T19:14:19;99966.47;;;10.63;82.50
31717;BME280;18301;51.076;17.046;2022-12-26T19:19:21;99957.63;;;10.61;82.56
31717;BME280;18301;51.076;17.046;2022-12-26T19:24:26;99964.22;;;10.68;81.53
31717;BME280;18301;51.076;17.046;2022-12-26T19:29:28;99956.13;;;10.68;81.89
31717;BME280;18301;51.076;17.046;2022-12-26T19:34:29;99951.97;;;10.64;82.03
31717;BME280;18301;51.076;17.046;2022-12-26T19:39:31;99971.25;;;10.59;81.79
31717;BME280;18301;51.076;17.046;2022-12-26T19:44:32;99966.47;;;10.52;81.90
31717;BME280;18301;51.076;17.046;2022-12-26T19:49:34;99971.41;;;10.47;82.08
31717;BME280;18301;51.076;17.046;2022-12-26T19:54:35;99960.84;;;10.44;81.93
31717;BME280;18301;51.076;17.046;2022-12-26T19:59:37;99964.03;;;10.38;82.36
31717;BME280;18301;51.076;17.046;2022-12-26T20:04:38;99970.88;;;10.30;82.64
31717;BME280;18301;51.076;17.046;2022-12-26T20:09:40;99960.84;;;10.32;82.47
31717;BME280;18301;51.076;17.046;2022-12-26T20:14:41;99951.28;;;10.28;82.35
31717;BME280;18301;51.076;17.046;2022-12-26T20:19:43;99951.75;;;10.22;82.45
31717;BME280;18301;51.076;17.046;2022-12-26T20:24:44;99953.69;;;10.20;82.57
31717;BME280;18301;51.076;17.046;2022-12-26T20:29:47;99965.72;;;10.16;82.50
31717;BME280;18301;51.076;17.046;2022-12-26T20:34:48;99968.00;;;10.09;82.38
31717;BME280;18301;51.076;17.046;2022-12-26T20:39:50;99965.06;;;10.01;82.37
31717;BME280;18301;51.076;17.046;2022-12-26T20:44:51;99967.97;;;9.87;82.81
31717;BME280;18301;51.076;17.046;2022-12-26T20:49:54;99958.28;;;9.84;83.04
31717;BME280;18301;51.076;17.046;2022-12-26T20:54:55;99953.28;;;9.91;83.09
31717;BME280;18301;51.076;17.046;2022-12-26T20:59:56;99938.44;;;9.74;82.98
31717;BME280;18301;51.076;17.046;2022-12-26T21:04:58;99937.00;;;9.93;82.89
31717;BME280;18301;51.076;17.046;2022-12-26T21:10:00;99939.44;;;9.84;82.82
31717;BME280;18301;51.076;17.046;2022-12-26T21:15:02;99939.50;;;9.60;84.07
31717;BME280;18301;51.076;17.046;2022-12-26T21:20:04;99939.53;;;9.72;83.80
31717;BME280;18301;51.076;17.046;2022-12-26T21:25:07;99939.16;;;9.65;85.30
31717;BME280;18301;51.076;17.046;2022-12-26T21:30:09;99954.94;;;9.69;85.41
31717;BME280;18301;51.076;17.046;2022-12-26T21:35:10;99957.06;;;9.77;86.13
31717;BME280;18301;51.076;17.046;2022-12-26T21:40:13;99955.59;;;9.84;85.37
31717;BME280;18301;51.076;17.046;2022-12-26T21:45:15;99953.50;;;9.88;86.18
31717;BME280;18301;51.076;17.046;2022-12-26T21:50:16;99947.50;;;9.84;86.51
31717;BME280;18301;51.076;17.046;2022-12-26T21:55:18;99948.25;;;9.86;86.62
31717;BME280;18301;51.076;17.046;2022-12-26T22:00:31;99939.94;;;9.89;86.33
31717;BME280;18301;51.076;17.046;2022-12-26T22:05:37;99930.97;;;9.78;87.29
31717;BME280;18301;51.076;17.046;2022-12-26T22:10:42;99930.75;;;9.92;86.92
31717;BME280;18301;51.076;17.046;2022-12-26T22:16:06;99944.22;;;9.92;87.92
31717;BME280;18301;51.076;17.046;2022-12-26T22:21:09;99950.25;;;9.96;87.78
31717;BME280;18301;51.076;17.046;2022-12-26T22:26:13;99961.13;;;9.94;89.42
31717;BME280;18301;51.076;17.046;2022-12-26T22:36:18;99960.97;;;9.84;90.48
31717;BME280;18301;51.076;17.046;2022-12-26T22:41:20;99958.53;;;9.81;90.71
31717;BME280;18301;51.076;17.046;2022-12-26T22:46:23;99961.50;;;9.89;90.75
31717;BME280;18301;51.076;17.046;2022-12-26T22:51:25;99958.81;;;9.89;90.33
31717;BME280;18301;51.076;17.046;2022-12-26T22:56:27;99964.47;;;9.98;89.77
31717;BME280;18301;51.076;17.046;2022-12-26T23:01:29;99978.66;;;10.00;89.29
31717;BME280;18301;51.076;17.046;2022-12-26T23:06:33;99984.13;;;10.33;86.90
31717;BME280;18301;51.076;17.046;2022-12-26T23:11:35;100003.47;;;10.27;86.96
31717;BME280;18301;51.076;17.046;2022-12-26T23:16:53;100011.03;;;10.11;87.42
31717;BME280;18301;51.076;17.046;2022-12-26T23:21:58;100017.41;;;10.10;85.66
31717;BME280;18301;51.076;17.046;2022-12-26T23:27:06;100037.97;;;10.00;85.10
31717;BME280;18301;51.076;17.046;2022-12-26T23:32:26;100033.50;;;9.87;85.38
31717;BME280;18301;51.076;17.046;2022-12-26T23:37:27;100032.66;;;9.52;86.76
31717;BME280;18301;51.076;17.046;2022-12-26T23:42:29;100032.06;;;9.35;87.96
31717;BME280;18301;51.076;17.046;2022-12-26T23:47:31;100001.50;;;9.36;88.68
31717;BME280;18301;51.076;17.046;2022-12-26T23:52:36;100054.91;;;9.42;89.08
31717;BME280;18301;51.076;17.046;2022-12-26T23:57:37;100053.16;;;9.41;89.17
